createdAt,value
2018-09-28T00:01:50.581Z,13.10
2018-09-28T00:04:17.804Z,12.96
2018-09-28T00:06:44.998Z,12.94
2018-09-28T00:09:12.234Z,12.94
2018-09-28T00:11:39.484Z,12.97
2018-09-28T00:14:07.051Z,12.90
2018-09-28T00:16:34.324Z,12.79
2018-09-28T00:19:01.599Z,12.73
2018-09-28T00:21:28.855Z,12.72
2018-09-28T00:23:56.123Z,12.74
2018-09-28T00:26:23.392Z,12.73
2018-09-28T00:28:50.575Z,12.73
2018-09-28T00:31:17.852Z,12.71
2018-09-28T00:33:45.051Z,12.67
2018-09-28T00:36:12.310Z,12.66
2018-09-28T00:38:39.538Z,12.62
2018-09-28T00:41:06.868Z,12.58
2018-09-28T00:43:34.118Z,12.60
2018-09-28T00:46:01.335Z,12.55
2018-09-28T00:48:28.606Z,12.53
2018-09-28T00:50:55.791Z,12.57
2018-09-28T00:53:23.004Z,12.47
2018-09-28T00:55:50.292Z,12.44
2018-09-28T00:58:17.643Z,12.45
2018-09-28T01:00:44.873Z,12.41
2018-09-28T01:03:12.255Z,12.45
2018-09-28T01:05:39.587Z,12.47
2018-09-28T01:08:06.869Z,12.41
2018-09-28T01:10:34.102Z,12.37
2018-09-28T01:13:01.394Z,12.36
2018-09-28T01:15:28.651Z,12.32
2018-09-28T01:17:55.903Z,12.33
2018-09-28T01:20:23.201Z,12.25
2018-09-28T01:22:50.537Z,12.24
2018-09-28T01:25:17.809Z,12.10
2018-09-28T01:27:45.009Z,12.10
2018-09-28T01:30:12.312Z,11.98
2018-09-28T01:32:39.535Z,11.75
2018-09-28T01:35:06.765Z,11.93
2018-09-28T01:37:33.950Z,11.95
2018-09-28T01:40:01.376Z,11.96
2018-09-28T01:42:28.549Z,11.92
2018-09-28T01:44:55.791Z,11.91
2018-09-28T01:47:23.270Z,11.94
2018-09-28T01:49:50.599Z,11.91
2018-09-28T01:52:17.830Z,11.85
2018-09-28T01:54:45.060Z,11.88
2018-09-28T01:57:12.289Z,11.85
2018-09-28T01:59:39.506Z,11.81
2018-09-28T02:02:06.754Z,11.81
2018-09-28T02:04:33.956Z,11.85
2018-09-28T02:07:01.224Z,11.85
2018-09-28T02:09:28.536Z,11.90
2018-09-28T02:11:55.942Z,11.87
2018-09-28T02:14:23.113Z,11.82
2018-09-28T02:16:50.394Z,11.83
2018-09-28T02:19:17.714Z,11.88
2018-09-28T02:21:44.895Z,11.94
2018-09-28T02:24:12.188Z,11.97
2018-09-28T02:26:39.385Z,12.02
2018-09-28T02:29:06.619Z,12.03
2018-09-28T02:31:33.823Z,11.98
2018-09-28T02:34:01.076Z,11.96
2018-09-28T02:36:28.420Z,12.01
2018-09-28T02:38:55.649Z,12.05
2018-09-28T02:41:22.898Z,12.03
2018-09-28T02:43:50.321Z,12.02
2018-09-28T02:46:17.619Z,12.01
2018-09-28T02:48:44.957Z,12.02
2018-09-28T02:51:12.188Z,11.97
2018-09-28T02:53:39.460Z,11.89
2018-09-28T02:56:06.689Z,11.87
2018-09-28T02:58:33.945Z,11.81
2018-09-28T03:01:01.250Z,11.87
2018-09-28T03:03:28.570Z,11.83
2018-09-28T03:05:55.898Z,11.79
2018-09-28T03:08:23.125Z,11.77
2018-09-28T03:10:50.322Z,11.74
2018-09-28T03:13:17.613Z,11.60
2018-09-28T03:15:44.830Z,11.58
2018-09-28T03:18:12.117Z,11.66
2018-09-28T03:20:39.293Z,11.66
2018-09-28T03:23:06.521Z,11.70
2018-09-28T03:25:33.706Z,11.59
2018-09-28T03:28:01.210Z,11.63
2018-09-28T03:30:28.448Z,11.65
2018-09-28T03:32:55.701Z,11.61
2018-09-28T03:35:22.955Z,11.61
2018-09-28T03:37:50.111Z,11.62
2018-09-28T03:40:17.383Z,11.51
2018-09-28T03:42:44.616Z,11.51
2018-09-28T03:45:11.864Z,11.47
2018-09-28T03:47:40.721Z,11.49
2018-09-28T03:50:08.041Z,11.47
2018-09-28T03:52:35.291Z,11.52
2018-09-28T03:55:02.528Z,11.42
2018-09-28T03:57:29.725Z,11.39
2018-09-28T03:59:56.994Z,11.26
2018-09-28T04:02:24.234Z,11.14
2018-09-28T04:04:51.537Z,11.16
2018-09-28T04:07:18.822Z,11.19
2018-09-28T04:09:46.018Z,11.16
2018-09-28T04:12:13.326Z,10.98
2018-09-28T04:14:40.639Z,10.71
2018-09-28T04:17:07.874Z,10.80
2018-09-28T04:19:35.121Z,10.89
2018-09-28T04:22:02.836Z,10.99
2018-09-28T04:24:30.918Z,11.11
2018-09-28T04:26:58.163Z,11.09
2018-09-28T04:29:25.624Z,11.12
2018-09-28T04:31:52.904Z,11.14
2018-09-28T04:34:20.242Z,11.13
2018-09-28T04:36:47.521Z,11.17
2018-09-28T04:39:14.837Z,11.20
2018-09-28T04:41:42.094Z,11.18
2018-09-28T04:44:09.444Z,11.21
2018-09-28T04:46:36.682Z,11.25
2018-09-28T04:49:03.885Z,11.18
2018-09-28T04:51:31.294Z,11.14
2018-09-28T04:53:58.489Z,11.18
2018-09-28T04:56:25.726Z,11.01
2018-09-28T04:58:52.964Z,11.01
2018-09-28T05:01:20.228Z,11.02
2018-09-28T05:03:47.501Z,11.06
2018-09-28T05:06:14.709Z,11.04
2018-09-28T05:08:41.971Z,11.09
2018-09-28T05:11:09.170Z,11.06
2018-09-28T05:13:36.427Z,11.08
2018-09-28T05:16:03.609Z,11.07
2018-09-28T05:18:30.908Z,10.97
2018-09-28T05:20:58.394Z,11.02
2018-09-28T05:23:25.667Z,11.03
2018-09-28T05:25:52.867Z,10.95
2018-09-28T05:28:20.181Z,10.94
2018-09-28T05:30:53.964Z,10.97
2018-09-28T05:33:14.586Z,10.93
2018-09-28T05:35:42.014Z,10.99
2018-09-28T05:38:09.389Z,11.01
2018-09-28T05:40:36.785Z,10.97
2018-09-28T05:43:03.997Z,10.98
2018-09-28T05:45:31.284Z,10.88
2018-09-28T05:47:58.462Z,10.94
2018-09-28T05:50:25.702Z,11.09
2018-09-28T05:52:53.016Z,11.12
2018-09-28T05:55:20.243Z,11.22
2018-09-28T05:57:50.708Z,11.09
2018-09-28T06:00:23.904Z,11.03
2018-09-28T06:02:56.892Z,11.16
2018-09-28T06:05:29.827Z,11.21
2018-09-28T06:07:57.053Z,11.26
2018-09-28T06:10:24.252Z,11.31
2018-09-28T06:12:51.447Z,11.35
2018-09-28T06:15:18.690Z,11.38
2018-09-28T06:17:45.983Z,11.33
2018-09-28T06:20:13.161Z,11.39
2018-09-28T06:22:40.443Z,11.43
2018-09-28T06:25:07.759Z,11.48
2018-09-28T06:27:34.998Z,11.52
2018-09-28T06:30:02.300Z,11.55
2018-09-28T06:32:29.707Z,11.67
2018-09-28T06:34:56.962Z,11.65
2018-09-28T06:37:24.290Z,11.74
2018-09-28T06:39:51.524Z,11.97
2018-09-28T06:42:18.887Z,12.22
2018-09-28T06:44:46.136Z,12.66
2018-09-28T06:47:13.285Z,13.22
2018-09-28T06:49:40.507Z,13.93
2018-09-28T06:52:07.779Z,14.55
2018-09-28T06:54:35.358Z,15.36
2018-09-28T06:57:02.655Z,16.34
2018-09-28T06:59:29.898Z,17.10
2018-09-28T07:01:57.146Z,17.97
2018-09-28T07:04:24.372Z,18.98
2018-09-28T07:06:51.600Z,19.50
2018-09-28T07:09:18.849Z,19.93
2018-09-28T07:11:46.213Z,20.38
2018-09-28T07:14:13.523Z,20.73
2018-09-28T07:16:41.010Z,20.95
2018-09-28T07:19:08.382Z,21.90
2018-09-28T07:21:35.760Z,22.70
2018-09-28T07:24:03.053Z,23.10
2018-09-28T07:26:30.404Z,23.37
2018-09-28T07:28:57.730Z,23.43
2018-09-28T07:31:24.977Z,23.39
2018-09-28T07:33:52.303Z,22.93
2018-09-28T07:36:19.709Z,22.44
2018-09-28T07:38:46.876Z,22.69
2018-09-28T07:41:14.126Z,23.03
2018-09-28T07:43:41.340Z,23.28
2018-09-28T07:46:08.570Z,24.03
2018-09-28T07:48:35.816Z,24.68
2018-09-28T07:51:03.121Z,24.84
2018-09-28T07:53:30.333Z,24.30
2018-09-28T07:55:57.557Z,24.30
2018-09-28T07:58:24.905Z,24.72
2018-09-28T08:00:52.133Z,24.54
2018-09-28T08:03:23.916Z,25.13
2018-09-28T08:05:51.335Z,25.45
2018-09-28T08:08:18.588Z,25.59
2018-09-28T08:10:45.902Z,25.42
2018-09-28T08:13:13.153Z,25.70
2018-09-28T08:15:40.362Z,25.49
2018-09-28T08:18:07.560Z,25.17
2018-09-28T08:23:14.427Z,26.06
2018-09-28T08:25:41.563Z,25.93
2018-09-28T08:28:08.785Z,25.75
2018-09-28T08:30:36.167Z,26.27
2018-09-28T08:33:03.336Z,26.00
2018-09-28T08:35:30.583Z,26.49
2018-09-28T08:37:57.852Z,26.16
2018-09-28T08:40:25.376Z,25.61
2018-09-28T08:42:52.542Z,24.63
2018-09-28T08:45:19.814Z,23.69
2018-09-28T08:47:47.017Z,24.13
2018-09-28T08:50:14.236Z,24.33
2018-09-28T08:52:41.539Z,24.42
2018-09-28T08:55:08.849Z,24.79
2018-09-28T08:57:36.035Z,24.96
2018-09-28T09:00:03.483Z,25.21
2018-09-28T09:02:30.715Z,25.41
2018-09-28T09:04:57.920Z,25.41
2018-09-28T09:07:25.170Z,25.50
2018-09-28T09:09:52.431Z,25.79
2018-09-28T09:12:19.671Z,26.01
2018-09-28T09:14:47.034Z,26.42
2018-09-28T09:17:14.346Z,26.75
2018-09-28T09:19:41.580Z,26.49
2018-09-28T09:22:08.877Z,26.90
2018-09-28T09:24:36.078Z,27.16
2018-09-28T09:27:03.305Z,27.37
2018-09-28T09:29:30.493Z,27.63
2018-09-28T09:31:57.766Z,27.60
2018-09-28T09:34:24.996Z,28.09
2018-09-28T09:36:52.268Z,28.28
2018-09-28T09:39:19.515Z,29.00
2018-09-28T09:41:46.728Z,28.53
2018-09-28T09:44:13.953Z,28.51
2018-09-28T09:46:41.129Z,28.59
2018-09-28T09:49:08.323Z,28.35
2018-09-28T09:51:35.598Z,28.23
2018-09-28T09:54:02.842Z,28.59
2018-09-28T09:56:30.132Z,28.90
2018-09-28T09:58:57.357Z,29.21
2018-09-28T10:01:30.350Z,29.24
2018-09-28T10:04:02.140Z,29.37
2018-09-28T10:06:29.387Z,29.31
2018-09-28T10:08:56.569Z,28.77
2018-09-28T10:11:23.732Z,29.04
2018-09-28T10:13:50.896Z,29.53
2018-09-28T10:16:18.089Z,29.54
2018-09-28T10:18:45.325Z,29.63
2018-09-28T10:21:12.597Z,30.02
2018-09-28T10:23:39.789Z,29.87
2018-09-28T10:26:07.011Z,29.97
2018-09-28T10:28:34.301Z,30.35
2018-09-28T10:31:01.432Z,30.48
2018-09-28T10:33:28.708Z,30.56
2018-09-28T10:35:56.515Z,30.60
2018-09-28T10:38:23.730Z,30.31
2018-09-28T10:40:51.031Z,30.17
2018-09-28T10:43:24.504Z,30.06
2018-09-28T10:45:51.821Z,30.14
2018-09-28T10:48:19.108Z,30.29
2018-09-28T10:50:46.438Z,30.34
2018-09-28T10:53:13.831Z,30.42
2018-09-28T10:55:41.020Z,30.44
2018-09-28T10:58:08.439Z,29.63
2018-09-28T11:00:35.699Z,30.12
2018-09-28T11:03:03.001Z,30.26
2018-09-28T11:05:30.262Z,29.74
2018-09-28T11:07:57.580Z,29.86
2018-09-28T11:10:24.873Z,29.84
2018-09-28T11:12:52.150Z,29.90
2018-09-28T11:15:19.530Z,29.74
2018-09-28T11:17:46.779Z,29.53
2018-09-28T11:20:14.120Z,29.08
2018-09-28T11:22:41.464Z,29.51
2018-09-28T11:25:09.754Z,29.77
2018-09-28T11:27:37.035Z,29.62
2018-09-28T11:30:04.407Z,29.49
2018-09-28T11:32:31.667Z,29.09
2018-09-28T11:34:59.017Z,29.40
2018-09-28T11:37:26.333Z,29.73
2018-09-28T11:39:53.582Z,29.49
2018-09-28T11:42:20.848Z,29.57
2018-09-28T11:44:48.233Z,29.45
2018-09-28T11:47:15.535Z,29.02
2018-09-28T11:49:42.801Z,28.63
2018-09-28T11:52:10.112Z,28.81
2018-09-28T11:54:37.338Z,28.78
2018-09-28T11:57:04.671Z,29.13
2018-09-28T11:59:31.996Z,29.23
2018-09-28T12:01:59.220Z,29.46
2018-09-28T12:04:26.479Z,29.35
2018-09-28T12:06:53.985Z,29.60
2018-09-28T12:09:21.206Z,29.29
2018-09-28T12:11:48.467Z,29.22
2018-09-28T12:14:15.730Z,29.36
2018-09-28T12:16:43.107Z,29.15
2018-09-28T12:19:10.363Z,29.24
2018-09-28T12:21:37.672Z,29.33
2018-09-28T12:24:04.904Z,29.06
2018-09-28T12:26:32.148Z,28.58
2018-09-28T12:28:59.707Z,28.67
2018-09-28T12:31:26.903Z,28.73
2018-09-28T12:33:54.147Z,28.81
2018-09-28T12:36:21.416Z,28.91
2018-09-28T12:38:48.747Z,28.74
2018-09-28T12:41:16.104Z,28.41
2018-09-28T12:43:43.436Z,27.88
2018-09-28T12:46:10.755Z,27.52
2018-09-28T12:48:38.101Z,27.47
2018-09-28T12:51:05.502Z,27.64
2018-09-28T12:53:32.757Z,27.88
2018-09-28T12:56:00.090Z,28.11
2018-09-28T12:58:27.446Z,28.10
2018-09-28T13:00:56.998Z,28.23
2018-09-28T13:03:25.613Z,28.46
2018-09-28T13:05:52.983Z,28.40
2018-09-28T13:08:20.334Z,27.76
2018-09-28T13:10:47.826Z,28.08
2018-09-28T13:13:15.776Z,28.28
2018-09-28T13:15:43.100Z,28.70
2018-09-28T13:18:10.489Z,28.96
2018-09-28T13:20:37.790Z,28.53
2018-09-28T13:23:05.039Z,28.53
2018-09-28T13:25:32.380Z,27.71
2018-09-28T13:27:59.646Z,27.88
2018-09-28T13:30:27.101Z,27.78
2018-09-28T13:32:54.337Z,27.99
2018-09-28T13:35:21.702Z,28.45
2018-09-28T13:37:48.977Z,28.61
2018-09-28T13:40:16.206Z,28.61
2018-09-28T13:42:43.490Z,28.37
2018-09-28T13:45:10.852Z,28.30
2018-09-28T13:47:38.012Z,28.52
2018-09-28T13:50:05.455Z,28.68
2018-09-28T13:52:34.316Z,28.69
2018-09-28T13:55:01.654Z,28.50
2018-09-28T13:57:28.930Z,28.74
2018-09-28T13:59:56.238Z,28.20
2018-09-28T14:02:23.691Z,27.78
2018-09-28T14:04:50.925Z,27.66
2018-09-28T14:07:18.193Z,27.90
2018-09-28T14:09:45.464Z,27.44
2018-09-28T14:12:12.796Z,26.82
2018-09-28T14:14:40.075Z,26.79
2018-09-28T14:17:07.329Z,27.00
2018-09-28T14:19:34.570Z,27.59
2018-09-28T14:22:01.795Z,27.41
2018-09-28T14:24:29.160Z,27.47
2018-09-28T14:26:56.406Z,27.50
2018-09-28T14:29:23.711Z,27.39
2018-09-28T14:31:51.007Z,27.62
2018-09-28T14:34:18.291Z,27.47
2018-09-28T14:36:45.557Z,27.35
2018-09-28T14:39:12.772Z,27.56
2018-09-28T14:41:40.092Z,27.77
2018-09-28T14:44:07.949Z,27.97
2018-09-28T14:46:35.287Z,28.36
2018-09-28T14:49:02.631Z,28.34
2018-09-28T14:51:30.169Z,28.64
2018-09-28T14:53:59.560Z,28.33
2018-09-28T14:56:27.008Z,28.07
2018-09-28T14:58:54.288Z,27.68
2018-09-28T15:01:21.757Z,27.30
2018-09-28T15:03:48.903Z,27.48
2018-09-28T15:06:16.312Z,27.19
2018-09-28T15:08:43.589Z,26.98
2018-09-28T15:11:10.847Z,26.91
2018-09-28T15:13:38.090Z,26.64
2018-09-28T15:16:05.485Z,26.68
2018-09-28T15:18:32.800Z,26.93
2018-09-28T15:21:02.498Z,26.71
2018-09-28T15:23:30.037Z,26.67
2018-09-28T15:25:57.322Z,26.25
2018-09-28T15:28:24.682Z,26.07
2018-09-28T15:30:51.925Z,26.12
2018-09-28T15:33:19.256Z,26.09
2018-09-28T15:35:46.571Z,25.95
2018-09-28T15:38:13.869Z,25.61
2018-09-28T15:40:41.150Z,25.40
2018-09-28T15:43:08.454Z,25.49
2018-09-28T15:45:35.744Z,25.37
2018-09-28T15:48:03.095Z,24.88
2018-09-28T15:50:30.386Z,24.95
2018-09-28T15:52:57.694Z,24.54
2018-09-28T15:55:24.939Z,24.54
2018-09-28T15:57:52.196Z,24.32
2018-09-28T16:00:19.553Z,24.33
2018-09-28T16:02:46.791Z,24.18
2018-09-28T16:05:14.111Z,24.36
2018-09-28T16:07:41.370Z,23.89
2018-09-28T16:10:08.615Z,23.08
2018-09-28T16:12:35.961Z,22.85
2018-09-28T16:15:03.323Z,22.64
2018-09-28T16:17:30.599Z,21.97
2018-09-28T16:19:57.891Z,21.97
2018-09-28T16:22:25.160Z,21.92
2018-09-28T16:24:52.485Z,21.70
2018-09-28T16:27:19.800Z,21.58
2018-09-28T16:29:47.061Z,21.30
2018-09-28T16:32:14.387Z,21.07
2018-09-28T16:34:41.656Z,20.81
2018-09-28T16:37:08.971Z,20.76
2018-09-28T16:39:36.214Z,20.58
2018-09-28T16:42:03.526Z,20.42
2018-09-28T16:44:30.946Z,20.29
2018-09-28T16:46:58.246Z,20.11
2018-09-28T16:49:25.484Z,20.02
2018-09-28T16:51:52.758Z,20.07
2018-09-28T16:54:19.961Z,19.98
2018-09-28T16:56:47.291Z,19.77
2018-09-28T16:59:14.568Z,19.76
2018-09-28T17:01:43.195Z,19.63
2018-09-28T17:04:10.517Z,19.48
2018-09-28T17:06:37.862Z,19.39
2018-09-28T17:09:06.429Z,19.31
2018-09-28T17:11:33.617Z,19.18
2018-09-28T17:14:00.941Z,19.04
2018-09-28T17:16:28.198Z,18.94
2018-09-28T17:18:55.474Z,18.87
2018-09-28T17:21:22.735Z,18.99
2018-09-28T17:23:50.710Z,18.85
2018-09-28T17:26:17.998Z,18.71
2018-09-28T17:28:45.336Z,18.70
2018-09-28T17:31:12.551Z,18.62
2018-09-28T17:33:40.036Z,18.45
2018-09-28T17:36:07.383Z,18.37
2018-09-28T17:38:34.819Z,18.29
2018-09-28T17:41:02.195Z,18.16
2018-09-28T17:43:29.675Z,17.99
2018-09-28T17:46:00.604Z,18.01
2018-09-28T17:48:27.963Z,17.95
2018-09-28T17:50:55.201Z,17.95
2018-09-28T17:53:22.501Z,17.88
2018-09-28T17:55:49.793Z,17.81
2018-09-28T17:58:17.075Z,17.72
2018-09-28T18:00:44.417Z,17.55
2018-09-28T18:03:11.740Z,17.53
2018-09-28T18:05:39.074Z,17.47
2018-09-28T18:08:06.402Z,17.29
2018-09-28T18:10:33.702Z,17.20
2018-09-28T18:13:00.990Z,17.20
2018-09-28T18:15:28.264Z,17.27
2018-09-28T18:17:55.604Z,17.28
2018-09-28T18:20:23.050Z,17.12
2018-09-28T18:22:50.396Z,16.87
2018-09-28T18:25:17.726Z,16.84
2018-09-28T18:27:45.015Z,16.72
2018-09-28T18:30:12.345Z,16.58
2018-09-28T18:32:39.731Z,16.35
2018-09-28T18:35:07.329Z,16.26
2018-09-28T18:37:34.632Z,16.28
2018-09-28T18:40:02.047Z,16.33
2018-09-28T18:42:29.374Z,16.23
2018-09-28T18:44:56.749Z,16.22
2018-09-28T18:47:24.047Z,16.14
2018-09-28T18:49:51.754Z,16.15
2018-09-28T18:52:19.048Z,16.08
2018-09-28T18:54:46.301Z,16.00
2018-09-28T18:57:13.655Z,15.99
2018-09-28T18:59:40.997Z,15.90
2018-09-28T19:02:08.365Z,15.75
2018-09-28T19:04:35.641Z,15.95
2018-09-28T19:07:03.064Z,16.11
2018-09-28T19:09:30.395Z,16.14
2018-09-28T19:11:57.670Z,16.22
2018-09-28T19:14:25.211Z,16.25
2018-09-28T19:16:52.633Z,16.14
2018-09-28T19:19:19.944Z,16.21
2018-09-28T19:21:47.318Z,15.91
2018-09-28T19:24:14.538Z,15.81
2018-09-28T19:26:41.933Z,15.59
2018-09-28T19:29:09.378Z,15.75
2018-09-28T19:31:36.683Z,15.58
2018-09-28T19:34:07.718Z,15.32
2018-09-28T19:36:35.075Z,15.31
2018-09-28T19:39:02.644Z,15.22
2018-09-28T19:41:30.087Z,15.29
2018-09-28T19:43:57.406Z,15.48
2018-09-28T19:46:26.325Z,15.41
2018-09-28T19:48:53.802Z,15.26
2018-09-28T19:51:21.210Z,15.22
2018-09-28T19:53:48.496Z,15.18
2018-09-28T19:56:19.137Z,15.01
2018-09-28T19:58:46.390Z,14.96
2018-09-28T20:01:13.738Z,14.96
2018-09-28T20:03:41.023Z,14.76
2018-09-28T20:06:08.343Z,14.62
2018-09-28T20:08:35.538Z,14.60
2018-09-28T20:11:02.849Z,14.67
2018-09-28T20:13:30.116Z,14.61
2018-09-28T20:15:57.448Z,14.61
2018-09-28T20:18:24.704Z,14.58
2018-09-28T20:20:51.960Z,14.57
2018-09-28T20:23:19.220Z,14.52
2018-09-28T20:25:46.514Z,14.47
2018-09-28T20:28:13.828Z,14.28
2018-09-28T20:30:41.157Z,14.10
2018-09-28T20:33:08.452Z,14.05
2018-09-28T20:35:35.722Z,14.18
2018-09-28T20:38:03.124Z,14.26
2018-09-28T20:40:30.431Z,14.37
2018-09-28T20:42:57.730Z,14.32
2018-09-28T20:45:25.054Z,14.34
2018-09-28T20:47:52.409Z,14.36
2018-09-28T20:50:19.702Z,14.40
2018-09-28T20:52:47.017Z,14.38
2018-09-28T20:55:14.275Z,13.91
2018-09-28T20:57:41.515Z,14.42
2018-09-28T21:00:08.797Z,14.41
2018-09-28T21:02:36.023Z,14.32
2018-09-28T21:05:03.309Z,14.30
2018-09-28T21:07:30.675Z,14.34
2018-09-28T21:09:57.923Z,14.28
2018-09-28T21:12:25.278Z,14.22
2018-09-28T21:14:52.655Z,14.31
2018-09-28T21:18:44.509Z,14.15
2018-09-28T21:21:11.762Z,14.12
2018-09-28T21:23:39.125Z,14.10
2018-09-28T21:26:06.450Z,14.21
2018-09-28T21:28:33.752Z,14.16
2018-09-28T21:31:00.996Z,14.19
2018-09-28T21:33:28.273Z,14.15
2018-09-28T21:35:56.199Z,14.01
2018-09-28T21:38:23.610Z,14.11
2018-09-28T21:40:51.130Z,13.91
2018-09-28T21:43:18.580Z,13.98
2018-09-28T21:45:45.916Z,13.99
2018-09-28T21:48:13.235Z,13.91
2018-09-28T21:50:40.640Z,13.90
2018-09-28T21:53:07.946Z,13.97
2018-09-28T21:55:35.274Z,14.03
2018-09-28T21:58:02.543Z,13.96
2018-09-28T22:00:30.022Z,13.95
2018-09-28T22:02:57.958Z,13.99
2018-09-28T22:05:25.286Z,14.00
2018-09-28T22:07:52.538Z,13.84
2018-09-28T22:10:19.942Z,13.85
2018-09-28T22:12:47.280Z,13.77
2018-09-28T22:15:14.540Z,13.69
2018-09-28T22:17:41.848Z,13.73
2018-09-28T22:20:09.235Z,13.72
2018-09-28T22:22:36.534Z,13.68
2018-09-28T22:25:03.855Z,13.73
2018-09-28T22:27:31.123Z,13.71
2018-09-28T22:29:58.483Z,13.63
2018-09-28T22:32:25.837Z,13.62
2018-09-28T22:34:53.188Z,13.68
2018-09-28T22:37:20.525Z,13.67
2018-09-28T22:39:47.827Z,13.74
2018-09-28T22:42:15.535Z,13.64
2018-09-28T22:44:42.830Z,13.62
2018-09-28T22:47:10.150Z,13.62
2018-09-28T22:49:37.518Z,13.70
2018-09-28T22:52:04.909Z,13.63
2018-09-28T22:54:32.273Z,13.63
2018-09-28T22:56:59.551Z,13.64
2018-09-28T22:59:26.938Z,13.66
2018-09-28T23:01:54.240Z,13.68
2018-09-28T23:04:21.514Z,13.57
2018-09-28T23:06:48.889Z,13.51
2018-09-28T23:09:16.248Z,13.49
2018-09-28T23:11:43.571Z,13.54
2018-09-28T23:14:10.907Z,13.57
2018-09-28T23:16:38.204Z,13.51
2018-09-28T23:19:05.584Z,13.45
2018-09-28T23:21:32.920Z,12.79
2018-09-28T23:24:00.224Z,13.51
2018-09-28T23:26:27.591Z,13.60
2018-09-28T23:28:54.901Z,13.62
2018-09-28T23:31:22.233Z,13.52
2018-09-28T23:33:49.608Z,13.54
2018-09-28T23:36:17.007Z,13.53
2018-09-28T23:38:44.353Z,13.57
2018-09-28T23:41:11.715Z,13.56
2018-09-28T23:43:39.056Z,13.57
2018-09-28T23:46:06.380Z,13.58
2018-09-28T23:48:33.744Z,13.50
2018-09-28T23:51:01.044Z,13.49
2018-09-28T23:53:28.406Z,13.29
2018-09-28T23:55:55.711Z,13.28
2018-09-28T23:58:23.032Z,13.30
